Time;durP1;ratioP1;P1;durP2;ratioP2;P2;SDS_P1;SDS_P2;PMS_P1;PMS_P2;Temp;Humidity;BMP_temperature;BMP_pressure;BME280_temperature;BME280_humidity;BME280_pressure;Samples;Min_cycle;Max_cycle;Signal;HPM_P1;HPM_P2
2022/05/29 00:00:04;;;;;;;19.90;2.55;;;9.50;99.90;;;;;;4939918;29;20062;-92
2022/05/29 00:02:35;;;;;;;11.05;2.17;;;9.60;99.90;;;;;;4931766;29;20028;-93
2022/05/29 00:05:03;;;;;;;10.73;2.35;;;9.60;99.90;;;;;;4937924;29;20483;-92
2022/05/29 00:07:33;;;;;;;13.07;2.58;;;9.50;99.90;;;;;;4939832;29;20067;-93
2022/05/29 00:10:06;;;;;;;8.05;1.92;;;9.50;99.90;;;;;;4939423;29;20031;-94
2022/05/29 00:12:33;;;;;;;14.25;2.42;;;9.50;99.90;;;;;;4940434;29;20024;-92
2022/05/29 00:15:04;;;;;;;12.07;2.08;;;9.50;99.90;;;;;;4939194;29;20043;-92
2022/05/29 00:17:53;;;;;;;7.72;1.95;;;9.50;99.90;;;;;;4936283;29;20019;-93
2022/05/29 00:20:23;;;;;;;7.93;1.90;;;9.50;99.90;;;;;;4950802;29;20122;-92
2022/05/29 00:22:49;;;;;;;9.32;1.92;;;9.50;99.90;;;;;;4930213;29;20043;-93
2022/05/29 00:25:27;;;;;;;10.90;1.90;;;9.50;99.90;;;;;;4922397;29;20027;-96
2022/05/29 00:27:59;;;;;;;7.47;1.50;;;9.50;99.90;;;;;;4937656;29;20036;-93
2022/05/29 00:30:27;;;;;;;18.83;2.42;;;9.40;99.90;;;;;;4940481;29;20031;-92
2022/05/29 00:33:13;;;;;;;7.22;2.10;;;9.50;99.90;;;;;;4939528;29;20036;-92
2022/05/29 00:35:42;;;;;;;7.55;1.55;;;9.40;99.90;;;;;;4938549;29;20032;-93
2022/05/29 00:38:18;;;;;;;15.25;2.47;;;9.40;99.90;;;;;;4938831;29;20118;-92
2022/05/29 00:40:47;;;;;;;;;;;9.40;99.90;;;;;;4935266;29;20093;-94
2022/05/29 00:43:25;;;;;;;;;;;;;;;;;;;;;
2022/05/29 00:46:17;;;;;;;15.65;2.45;;;9.40;99.90;;;;;;4950037;28;20396;-93
2022/05/29 00:48:43;;;;;;;6.35;1.77;;;9.40;99.90;;;;;;4903948;29;20039;-92
2022/05/29 00:51:11;;;;;;;12.13;2.38;;;9.40;99.90;;;;;;4955359;29;20031;-92
2022/05/29 00:53:39;;;;;;;4.68;1.50;;;9.40;99.90;;;;;;4937490;29;20035;-92
2022/05/29 00:56:12;;;;;;;8.07;2.22;;;9.30;99.90;;;;;;4951476;29;20054;-95
2022/05/29 00:58:40;;;;;;;19.50;3.38;;;9.30;99.90;;;;;;4938708;29;20035;-95
2022/05/29 01:01:09;;;;;;;8.73;2.10;;;9.40;99.90;;;;;;4923512;29;20052;-93
2022/05/29 01:03:34;;;;;;;7.88;2.25;;;9.40;99.90;;;;;;4938128;29;20582;-92
2022/05/29 01:06:00;;;;;;;9.23;1.70;;;9.30;99.90;;;;;;4922472;29;20047;-93
2022/05/29 01:08:36;;;;;;;7.15;1.80;;;9.30;99.90;;;;;;4933932;29;20050;-93
2022/05/29 01:11:01;;;;;;;;;;;9.40;99.90;;;;;;4929288;29;20036;-93
2022/05/29 01:13:46;;;;;;;8.40;1.70;;;9.40;99.90;;;;;;4923390;29;19933;-95
2022/05/29 01:16:34;;;;;;;5.53;1.80;;;9.40;99.90;;;;;;4936972;29;20047;-92
2022/05/29 01:19:19;;;;;;;4.82;1.73;;;9.40;99.90;;;;;;4933658;29;20122;-93
2022/05/29 01:22:11;;;;;;;8.93;2.03;;;9.50;99.90;;;;;;4939034;29;20102;-92
2022/05/29 01:25:11;;;;;;;6.25;1.73;;;9.40;99.90;;;;;;4935940;29;20035;-93
2022/05/29 01:28:27;;;;;;;11.80;2.13;;;9.50;99.90;;;;;;4929903;29;20384;-93
2022/05/29 01:31:44;;;;;;;8.65;2.92;;;9.50;99.90;;;;;;4925415;28;20037;-96
2022/05/29 01:34:15;;;;;;;6.05;2.17;;;9.50;99.90;;;;;;4931839;29;20118;-95
2022/05/29 01:37:02;;;;;;;13.02;2.50;;;9.50;99.90;;;;;;4938177;29;20027;-94
2022/05/29 01:39:53;;;;;;;6.85;1.73;;;9.50;99.90;;;;;;4940888;29;20178;-93
2022/05/29 01:42:29;;;;;;;9.88;2.75;;;9.50;99.90;;;;;;4937584;29;20444;-93
2022/05/29 01:45:29;;;;;;;6.30;1.95;;;9.50;99.90;;;;;;4937492;29;20035;-96
2022/05/29 01:48:35;;;;;;;6.93;2.47;;;9.50;99.90;;;;;;4938505;29;20023;-93
2022/05/29 01:51:48;;;;;;;7.33;2.13;;;9.50;99.90;;;;;;4922837;29;20031;-95
2022/05/29 01:54:38;;;;;;;10.88;2.38;;;9.50;99.90;;;;;;4926948;29;20286;-95
2022/05/29 01:57:34;;;;;;;8.32;1.98;;;9.50;99.90;;;;;;4937800;29;20305;-93
2022/05/29 02:00:16;;;;;;;;;;;;;;;;;;;;;
2022/05/29 02:03:05;;;;;;;6.03;2.15;;;9.60;99.90;;;;;;4949097;28;20035;-93
2022/05/29 02:05:58;;;;;;;7.68;2.25;;;9.60;99.90;;;;;;4937114;29;20030;-93
2022/05/29 02:08:37;;;;;;;11.30;2.05;;;9.60;99.90;;;;;;4935643;29;20031;-93
2022/05/29 02:11:25;;;;;;;8.65;2.67;;;9.70;99.90;;;;;;4934764;28;20032;-93
2022/05/29 02:17:08;;;;;;;9.10;2.75;;;9.70;99.90;;;;;;4943018;28;20039;-95
2022/05/29 02:19:46;;;;;;;8.73;1.75;;;9.80;99.90;;;;;;4955016;29;20024;-93
2022/05/29 02:22:21;;;;;;;5.32;1.80;;;9.80;99.90;;;;;;4933802;29;20488;-94
2022/05/29 02:24:50;;;;;;;2.55;1.45;;;9.80;99.90;;;;;;4939983;29;20023;-93
2022/05/29 02:27:51;;;;;;;5.63;1.30;;;9.80;99.90;;;;;;4937202;29;20468;-94
2022/05/29 02:30:17;;;;;;;9.50;2.22;;;9.80;99.90;;;;;;4930602;29;20032;-92
2022/05/29 02:32:54;;;;;;;9.68;2.00;;;9.80;99.90;;;;;;4952790;29;20034;-94
2022/05/29 02:35:27;;;;;;;14.52;1.92;;;9.80;99.90;;;;;;4933877;29;20024;-95
2022/05/29 02:38:07;;;;;;;11.43;2.10;;;9.80;99.90;;;;;;4947999;29;20035;-94
2022/05/29 02:40:58;;;;;;;14.05;2.88;;;9.90;99.90;;;;;;4939585;29;20041;-94
2022/05/29 02:43:35;;;;;;;4.63;1.45;;;10.00;99.90;;;;;;4937986;29;20042;-93
2022/05/29 02:46:29;;;;;;;6.13;1.80;;;10.00;99.90;;;;;;4926216;29;20053;-96
2022/05/29 02:49:03;;;;;;;3.63;1.50;;;9.90;99.90;;;;;;4936830;29;20124;-95
2022/05/29 02:51:29;;;;;;;4.65;1.90;;;9.90;99.90;;;;;;4937588;29;20066;-95
2022/05/29 02:53:57;;;;;;;8.48;2.08;;;9.90;99.90;;;;;;4946231;29;20059;-96
2022/05/29 02:56:22;;;;;;;6.00;1.70;;;9.90;99.90;;;;;;4936946;29;20031;-94
2022/05/29 02:58:52;;;;;;;14.75;2.13;;;9.90;99.90;;;;;;4936708;29;20027;-95
2022/05/29 03:01:49;;;;;;;10.88;2.20;;;9.90;99.90;;;;;;4936440;29;20101;-95
2022/05/29 03:04:50;;;;;;;;;;;;;;;;;;;;;
2022/05/29 03:10:37;;;;;;;5.45;1.52;;;9.90;99.90;;;;;;4953314;28;20117;-92
2022/05/29 03:13:42;;;;;;;7.20;1.85;;;9.80;99.90;;;;;;4935621;29;20031;-92
2022/05/29 03:16:26;;;;;;;10.75;2.20;;;9.80;99.90;;;;;;4858985;29;20050;-92
2022/05/29 03:19:24;;;;;;;6.55;2.08;;;9.80;99.90;;;;;;4926013;29;20085;-93
2022/05/29 03:22:11;;;;;;;;;;;;;;;;;;;;;
2022/05/29 03:24:52;;;;;;;6.75;2.05;;;9.70;99.90;;;;;;4957936;29;20035;-94
2022/05/29 03:28:06;;;;;;;9.07;1.95;;;9.80;99.90;;;;;;4940359;29;20035;-92
2022/05/29 03:30:53;;;;;;;9.23;2.30;;;9.70;99.90;;;;;;4954242;29;20032;-94
2022/05/29 03:33:24;;;;;;;14.50;1.65;;;9.70;99.90;;;;;;4941146;29;20117;-95
2022/05/29 03:35:52;;;;;;;10.25;2.00;;;9.70;99.90;;;;;;4941270;29;20035;-93
2022/05/29 03:38:31;;;;;;;13.73;2.92;;;9.70;99.90;;;;;;4940874;29;20035;-95
2022/05/29 03:41:32;;;;;;;;;;;;;;;;;;;;;
2022/05/29 03:44:00;;;;;;;9.77;2.42;;;9.60;99.90;;;;;;4938804;29;20023;-94
2022/05/29 03:46:33;;;;;;;12.88;3.63;;;9.60;99.90;;;;;;4927840;29;20038;-93
2022/05/29 03:48:58;;;;;;;13.82;2.35;;;9.50;99.90;;;;;;4951511;29;20547;-92
2022/05/29 03:55:00;;;;;;;10.45;2.17;;;9.60;99.90;;;;;;4934498;29;20469;-92
2022/05/29 04:02:02;;;;;;;;;;;;;;;;;;;;;
2022/05/29 04:04:45;;;;;;;;;;;;;;;;;;;;;
2022/05/29 05:09:09;;;;;;;11.80;2.28;;;9.70;99.90;;;;;;4911589;29;20044;-95
2022/05/29 05:35:07;;;;;;;9.27;2.05;;;10.00;99.90;;;;;;4915021;29;20052;-95
2022/05/29 05:37:42;;;;;;;6.03;2.05;;;10.00;99.90;;;;;;4904727;29;20122;-96
2022/05/29 05:40:21;;;;;;;8.70;1.70;;;10.00;99.90;;;;;;4903822;29;20107;-94
2022/05/29 06:17:14;;;;;;;10.70;2.40;;;10.20;99.90;;;;;;4919166;29;20051;-95
2022/05/29 06:19:40;;;;;;;7.38;1.63;;;10.20;99.90;;;;;;4900866;29;20035;-94
2022/05/29 06:22:07;;;;;;;10.00;2.88;;;10.30;99.90;;;;;;4900685;29;20032;-95
2022/05/29 06:24:33;;;;;;;7.60;1.88;;;10.30;99.90;;;;;;4899250;29;20017;-94
2022/05/29 06:26:59;;;;;;;6.35;1.67;;;10.30;99.90;;;;;;4905121;29;20032;-94
2022/05/29 06:29:25;;;;;;;7.13;2.60;;;10.40;99.90;;;;;;4917738;29;20119;-94
2022/05/29 06:32:09;;;;;;;8.20;2.20;;;10.40;99.90;;;;;;4900958;29;20040;-94
2022/05/29 06:34:35;;;;;;;12.32;2.83;;;10.50;99.90;;;;;;4900515;29;20389;-94
2022/05/29 06:37:07;;;;;;;16.15;2.55;;;10.50;99.90;;;;;;4900375;29;20067;-94
2022/05/29 06:42:55;;;;;;;11.05;2.28;;;10.50;99.90;;;;;;4917644;29;20393;-94
2022/05/29 06:45:27;;;;;;;5.07;1.52;;;10.50;99.90;;;;;;4900462;29;20024;-95
2022/05/29 06:47:53;;;;;;;13.68;1.90;;;10.60;99.90;;;;;;4900332;29;20032;-94
2022/05/29 06:50:18;;;;;;;11.13;2.47;;;10.60;99.90;;;;;;4901043;29;20488;-95
2022/05/29 06:52:53;;;;;;;6.88;1.77;;;10.70;99.90;;;;;;4904107;29;20032;-96
2022/05/29 06:55:21;;;;;;;4.32;1.77;;;10.70;99.90;;;;;;4905364;29;20074;-96
2022/05/29 06:57:47;;;;;;;9.80;2.20;;;10.60;99.90;;;;;;4904136;29;20032;-93
2022/05/29 07:08:42;;;;;;;11.75;2.78;;;10.70;99.90;;;;;;4926510;29;20031;-93
2022/05/29 07:11:19;;;;;;;11.02;2.20;;;10.80;99.90;;;;;;4905881;29;20046;-93
2022/05/29 07:13:44;;;;;;;15.20;2.25;;;10.90;99.90;;;;;;4895083;29;20386;-96
2022/05/29 07:16:10;;;;;;;9.13;2.35;;;10.90;99.90;;;;;;4908989;29;20048;-94
2022/05/29 07:18:39;;;;;;;7.78;2.22;;;10.90;99.90;;;;;;4906286;29;20035;-95
2022/05/29 07:21:05;;;;;;;9.02;2.28;;;11.00;99.90;;;;;;4900805;29;20035;-94
2022/05/29 07:23:31;;;;;;;11.65;1.90;;;11.00;99.90;;;;;;4884979;29;20028;-95
2022/05/29 07:26:33;;;;;;;12.13;2.30;;;11.10;99.90;;;;;;4900789;29;20504;-95
2022/05/29 07:28:59;;;;;;;5.05;1.75;;;11.00;99.90;;;;;;4903857;29;20469;-92
2022/05/29 07:31:25;;;;;;;9.93;2.00;;;11.10;99.90;;;;;;4903946;29;20024;-96
2022/05/29 07:33:55;;;;;;;9.77;1.60;;;11.10;99.90;;;;;;4904072;29;20043;-96
2022/05/29 07:36:22;;;;;;;7.03;1.63;;;11.20;99.90;;;;;;4904570;29;20071;-92
2022/05/29 07:38:47;;;;;;;9.32;1.95;;;11.30;99.90;;;;;;4906696;29;20431;-94
2022/05/29 07:43:57;;;;;;;3.65;1.50;;;11.30;99.90;;;;;;4939843;29;20104;-95
2022/05/29 07:46:25;;;;;;;3.70;1.50;;;11.40;99.90;;;;;;4921768;29;20055;-95
2022/05/29 07:48:51;;;;;;;8.80;2.17;;;11.40;99.90;;;;;;4904347;29;20492;-94
2022/05/29 07:51:16;;;;;;;6.80;1.65;;;11.40;99.90;;;;;;4904063;29;20040;-94
2022/05/29 07:53:43;;;;;;;9.77;2.03;;;11.40;99.90;;;;;;4935090;29;20461;-95
2022/05/29 07:56:09;;;;;;;8.50;2.20;;;11.40;99.90;;;;;;4921543;29;20028;-93
2022/05/29 07:58:38;;;;;;;13.40;2.15;;;11.40;99.90;;;;;;4920487;29;20492;-94
2022/05/29 08:01:49;;;;;;;11.85;2.10;;;11.50;99.90;;;;;;4909100;29;20028;-92
2022/05/29 08:04:15;;;;;;;10.93;3.10;;;11.50;99.90;;;;;;4925336;29;20445;-93
2022/05/29 08:06:41;;;;;;;5.18;1.23;;;11.50;99.90;;;;;;4911385;29;20027;-92
2022/05/29 08:09:10;;;;;;;9.70;1.73;;;11.60;99.90;;;;;;4914734;29;20470;-92
2022/05/29 08:11:35;;;;;;;7.57;1.83;;;11.60;99.90;;;;;;4906939;29;20028;-92
2022/05/29 08:14:01;;;;;;;7.18;1.90;;;11.70;99.90;;;;;;4917512;29;20035;-92
2022/05/29 08:16:28;;;;;;;12.95;2.08;;;11.70;99.90;;;;;;4915409;29;20055;-93
2022/05/29 08:19:11;;;;;;;6.03;2.72;;;11.70;99.90;;;;;;4932900;29;20036;-93
2022/05/29 08:21:36;;;;;;;16.90;2.88;;;11.80;99.90;;;;;;4919420;29;20028;-93
2022/05/29 08:32:25;;;;;;;11.57;1.98;;;11.70;99.90;;;;;;4918463;29;20112;-91
2022/05/29 08:34:51;;;;;;;8.43;2.47;;;11.60;99.90;;;;;;4915124;29;20055;-92
2022/05/29 08:37:17;;;;;;;7.25;2.33;;;11.60;99.90;;;;;;4929941;29;20032;-92
2022/05/29 08:39:43;;;;;;;10.98;2.33;;;11.60;99.90;;;;;;4914130;29;20514;-92
2022/05/29 08:42:47;;;;;;;9.73;2.30;;;11.60;99.90;;;;;;4909835;29;20039;-91
2022/05/29 08:45:14;;;;;;;10.07;2.15;;;11.60;99.90;;;;;;4927682;29;20090;-92
2022/05/29 08:47:41;;;;;;;10.60;3.45;;;11.60;99.90;;;;;;4914518;29;20474;-91
2022/05/29 08:50:41;;;;;;;6.15;2.00;;;11.60;99.90;;;;;;4923585;29;20020;-93
2022/05/29 08:54:01;;;;;;;3.83;1.35;;;11.70;99.90;;;;;;4924888;29;20028;-91
2022/05/29 08:57:10;;;;;;;11.10;2.00;;;11.80;99.90;;;;;;4896728;29;20476;-92
2022/05/29 08:59:49;;;;;;;7.25;1.77;;;11.90;99.90;;;;;;4937226;29;20458;-93
2022/05/29 09:02:54;;;;;;;11.30;1.80;;;12.00;99.90;;;;;;4903352;29;20123;-94
2022/05/29 09:05:39;;;;;;;9.05;2.45;;;11.90;99.90;;;;;;4915824;29;20119;-93
2022/05/29 09:08:15;;;;;;;11.68;2.10;;;11.90;99.90;;;;;;4917026;29;20483;-94
2022/05/29 09:10:44;;;;;;;5.38;1.63;;;12.00;99.90;;;;;;4928242;29;20063;-93
2022/05/29 09:13:24;;;;;;;9.23;3.10;;;12.00;99.90;;;;;;4900129;29;20374;-94
2022/05/29 09:15:56;;;;;;;7.53;2.30;;;12.00;99.90;;;;;;4919289;29;20080;-94
2022/05/29 09:18:26;;;;;;;5.93;2.08;;;12.00;99.90;;;;;;4921300;29;20024;-94
2022/05/29 09:21:02;;;;;;;5.88;1.92;;;12.00;99.90;;;;;;4921514;29;20082;-93
2022/05/29 09:23:33;;;;;;;;;;;12.00;99.90;;;;;;4921331;29;20167;-95
2022/05/29 09:26:03;;;;;;;6.65;1.80;;;12.00;99.90;;;;;;4901693;29;19918;-93
2022/05/29 09:28:42;;;;;;;4.05;1.70;;;12.00;99.90;;;;;;4901525;29;20041;-93
2022/05/29 09:31:24;;;;;;;6.75;2.22;;;12.10;99.90;;;;;;4918191;29;20028;-93
2022/05/29 09:33:56;;;;;;;5.15;1.50;;;12.10;99.90;;;;;;4925745;29;20035;-94
2022/05/29 09:36:57;;;;;;;8.85;1.67;;;12.20;99.90;;;;;;4907385;29;20052;-93
2022/05/29 09:39:29;;;;;;;5.78;1.45;;;12.30;99.90;;;;;;4898764;29;20477;-93
2022/05/29 09:42:11;;;;;;;7.65;1.67;;;12.40;99.90;;;;;;4916795;29;20067;-92
2022/05/29 09:44:36;;;;;;;5.05;1.73;;;12.40;99.90;;;;;;4898243;29;20024;-92
2022/05/29 09:50:42;;;;;;;7.30;1.40;;;12.40;99.90;;;;;;4919294;29;20034;-93
2022/05/29 09:53:57;;;;;;;15.30;1.65;;;12.40;99.90;;;;;;4934420;29;20152;-94
2022/05/29 09:56:31;;;;;;;7.25;1.90;;;12.40;99.90;;;;;;4886459;29;20037;-95
2022/05/29 09:59:04;;;;;;;7.03;1.92;;;12.40;99.90;;;;;;4921410;29;20039;-93
2022/05/29 10:01:38;;;;;;;11.82;2.00;;;12.40;99.90;;;;;;4917667;29;20061;-94
2022/05/29 10:04:30;;;;;;;6.82;1.90;;;12.40;99.90;;;;;;4918638;29;20412;-94
2022/05/29 10:06:58;;;;;;;8.18;1.50;;;12.40;99.90;;;;;;4919037;29;20028;-94
2022/05/29 10:09:26;;;;;;;7.75;1.40;;;12.50;99.90;;;;;;4901923;29;20040;-93
2022/05/29 10:11:58;;;;;;;6.40;1.63;;;12.50;99.90;;;;;;4907720;29;20035;-92
2022/05/29 10:14:46;;;;;;;6.22;2.05;;;12.50;99.90;;;;;;4901491;29;20114;-93
2022/05/29 10:20:50;;;;;;;10.38;1.88;;;12.80;99.90;;;;;;4855359;29;20048;-94
2022/05/29 10:23:35;;;;;;;6.85;1.90;;;12.90;99.90;;;;;;4923060;29;20030;-92
2022/05/29 10:26:43;;;;;;;7.53;1.70;;;13.00;99.90;;;;;;4909087;29;20050;-94
2022/05/29 10:29:16;;;;;;;8.38;1.88;;;13.10;99.90;;;;;;4917983;29;20397;-93
2022/05/29 10:31:42;;;;;;;4.45;1.23;;;13.20;99.90;;;;;;4900499;29;20388;-93
2022/05/29 10:37:37;;;;;;;6.68;1.67;;;13.30;99.90;;;;;;4917479;29;20035;-92
2022/05/29 10:40:29;;;;;;;7.93;1.67;;;13.30;99.90;;;;;;4911997;29;20040;-91
2022/05/29 10:43:00;;;;;;;13.02;2.03;;;13.50;99.90;;;;;;4913733;29;20040;-92
2022/05/29 10:45:53;;;;;;;6.57;1.65;;;13.60;99.90;;;;;;4914092;29;20099;-93
2022/05/29 10:49:05;;;;;;;4.68;1.30;;;13.60;99.90;;;;;;4916832;29;20020;-93
2022/05/29 10:51:51;;;;;;;5.18;1.55;;;13.70;99.90;;;;;;4902858;29;20024;-91
2022/05/29 10:54:28;;;;;;;6.50;1.98;;;13.60;99.90;;;;;;4898585;29;20042;-91
2022/05/29 10:57:20;;;;;;;9.40;1.77;;;13.50;99.90;;;;;;4912810;29;20374;-92
2022/05/29 11:00:23;;;;;;;6.20;1.58;;;13.50;99.90;;;;;;4925871;29;20114;-91
2022/05/29 11:03:18;;;;;;;5.50;1.27;;;13.30;99.90;;;;;;4901749;29;20040;-92
2022/05/29 11:06:14;;;;;;;5.82;1.63;;;13.20;99.90;;;;;;4907702;29;20031;-92
2022/05/29 11:09:15;;;;;;;6.53;1.67;;;13.20;99.90;;;;;;4898762;29;20115;-91
2022/05/29 11:11:47;;;;;;;7.80;1.52;;;13.20;99.90;;;;;;4928648;29;20028;-88
2022/05/29 11:14:39;;;;;;;5.80;1.65;;;13.20;99.90;;;;;;4923313;29;20024;-88
2022/05/29 11:17:45;;;;;;;11.40;2.00;;;13.20;99.90;;;;;;4909463;29;20047;-89
2022/05/29 11:20:10;;;;;;;4.55;1.35;;;13.20;99.90;;;;;;4913057;29;20028;-89
2022/05/29 11:22:57;;;;;;;4.85;1.30;;;13.30;99.90;;;;;;4897739;29;20481;-87
2022/05/29 11:25:36;;;;;;;5.88;1.85;;;13.40;99.90;;;;;;4927178;29;20031;-88
2022/05/29 11:28:20;;;;;;;5.45;1.50;;;13.50;99.90;;;;;;4908601;29;20055;-88
2022/05/29 11:31:06;;;;;;;4.72;1.30;;;13.40;99.90;;;;;;4913147;29;20130;-89
2022/05/29 11:33:47;;;;;;;6.90;1.85;;;13.40;99.90;;;;;;4909034;29;20507;-90
2022/05/29 11:36:50;;;;;;;6.55;1.70;;;13.40;99.90;;;;;;4928123;29;20028;-89
2022/05/29 11:39:40;;;;;;;2.67;1.30;;;13.30;99.90;;;;;;4923473;29;20482;-90
2022/05/29 11:42:10;;;;;;;4.43;1.92;;;13.30;99.90;;;;;;4934639;29;20038;-89
2022/05/29 11:45:00;;;;;;;6.05;2.35;;;13.20;99.90;;;;;;4915183;29;20027;-88
2022/05/29 11:53:22;;;;;;;8.02;2.20;;;12.90;99.90;;;;;;4912019;29;20440;-84
2022/05/29 11:55:49;;;;;;;8.38;2.03;;;12.70;99.90;;;;;;4913890;29;20024;-89
2022/05/29 11:58:31;;;;;;;6.97;2.35;;;12.60;99.90;;;;;;4918788;29;20408;-88
2022/05/29 12:01:13;;;;;;;9.38;2.10;;;12.40;99.90;;;;;;4915840;29;20054;-89
2022/05/29 12:03:57;;;;;;;4.80;1.75;;;12.20;99.90;;;;;;4917014;29;20084;-88
2022/05/29 12:06:31;;;;;;;8.45;1.73;;;12.20;99.90;;;;;;4916617;29;20036;-88
2022/05/29 12:09:18;;;;;;;13.15;2.67;;;12.20;99.90;;;;;;4899965;29;20370;-88
2022/05/29 12:11:52;;;;;;;5.57;1.73;;;12.40;99.90;;;;;;4898760;29;20020;-88
2022/05/29 12:14:33;;;;;;;3.85;1.67;;;12.50;99.90;;;;;;4913706;29;20076;-88
2022/05/29 12:17:16;;;;;;;11.35;2.30;;;12.50;99.90;;;;;;4899694;29;20398;-89
2022/05/29 12:19:46;;;;;;;7.57;1.63;;;12.60;99.90;;;;;;4914124;29;20039;-88
2022/05/29 12:22:16;;;;;;;6.18;1.80;;;12.60;99.90;;;;;;4899520;29;20066;-88
2022/05/29 12:24:46;;;;;;;6.75;2.13;;;12.70;99.90;;;;;;4899590;29;20029;-88
2022/05/29 12:27:21;;;;;;;7.30;2.08;;;12.70;99.90;;;;;;4899469;29;20528;-88
2022/05/29 12:29:52;;;;;;;5.28;1.70;;;12.70;99.90;;;;;;4913774;29;20083;-88
2022/05/29 12:32:27;;;;;;;8.35;1.80;;;12.70;99.90;;;;;;4899343;29;20039;-89
2022/05/29 12:35:05;;;;;;;9.57;1.77;;;12.70;99.90;;;;;;4899473;29;20364;-88
2022/05/29 12:37:45;;;;;;;3.83;1.55;;;12.60;99.90;;;;;;4914043;29;20047;-89
2022/05/29 12:40:42;;;;;;;6.30;1.95;;;12.50;99.90;;;;;;4899338;29;20089;-89
2022/05/29 12:43:20;;;;;;;5.15;2.10;;;12.40;99.90;;;;;;4899589;29;20017;-89
2022/05/29 12:46:04;;;;;;;13.48;2.40;;;12.10;99.90;;;;;;4899016;29;20025;-88
2022/05/29 12:48:40;;;;;;;7.68;2.33;;;12.00;99.90;;;;;;4898877;29;20047;-88
2022/05/29 12:51:38;;;;;;;6.70;2.28;;;11.90;99.90;;;;;;4898446;29;20048;-88
2022/05/29 12:54:30;;;;;;;6.28;2.42;;;11.90;99.90;;;;;;4913603;29;20560;-88
2022/05/29 12:57:16;;;;;;;5.30;2.08;;;11.80;99.90;;;;;;4898895;29;20029;-88
2022/05/29 13:00:02;;;;;;;6.60;1.80;;;11.80;99.90;;;;;;4898680;29;20040;-88
2022/05/29 13:02:27;;;;;;;4.60;1.52;;;11.80;99.90;;;;;;4898842;29;20115;-88
2022/05/29 13:04:53;;;;;;;7.30;1.75;;;11.90;99.90;;;;;;4898743;29;20167;-88
2022/05/29 13:07:33;;;;;;;8.68;2.15;;;12.10;99.90;;;;;;4898669;29;20032;-87
2022/05/29 13:10:09;;;;;;;5.00;2.17;;;12.20;99.90;;;;;;4898807;29;20025;-88
2022/05/29 13:12:43;;;;;;;6.78;1.98;;;12.30;99.90;;;;;;4898585;29;20095;-88
2022/05/29 13:15:20;;;;;;;8.40;1.83;;;12.40;99.90;;;;;;4898247;29;20503;-88
2022/05/29 13:17:46;;;;;;;8.18;1.70;;;12.40;99.90;;;;;;4898519;29;20064;-88
2022/05/29 13:20:17;;;;;;;1.98;1.42;;;12.50;99.90;;;;;;4898507;29;20420;-88
2022/05/29 13:22:55;;;;;;;3.70;1.48;;;12.60;99.90;;;;;;4898483;29;20024;-88
2022/05/29 13:25:28;;;;;;;5.00;1.88;;;12.60;99.90;;;;;;4898433;29;20080;-88
2022/05/29 13:27:56;;;;;;;2.15;1.30;;;12.70;99.90;;;;;;4897161;29;20029;-88
2022/05/29 13:30:33;;;;;;;4.40;2.03;;;12.70;99.90;;;;;;4898077;29;20027;-88
2022/05/29 13:33:24;;;;;;;2.78;1.65;;;12.80;99.90;;;;;;4896944;29;20426;-88
2022/05/29 13:35:50;;;;;;;3.33;1.73;;;12.80;99.90;;;;;;4898380;29;20027;-88
2022/05/29 13:38:43;;;;;;;2.58;1.25;;;12.80;99.90;;;;;;4898108;29;20024;-87
2022/05/29 13:41:23;;;;;;;3.80;1.60;;;12.80;99.90;;;;;;4897979;29;20156;-88
2022/05/29 13:43:49;;;;;;;3.65;1.70;;;12.80;99.90;;;;;;4912586;29;20033;-88
2022/05/29 13:46:25;;;;;;;3.13;1.58;;;12.70;99.90;;;;;;4897759;29;20044;-88
2022/05/29 13:49:02;;;;;;;2.17;1.17;;;12.60;99.90;;;;;;4912406;29;20430;-88
2022/05/29 13:51:31;;;;;;;2.97;1.23;;;12.50;99.90;;;;;;4897957;29;20032;-88
2022/05/29 13:54:00;;;;;;;4.03;1.40;;;12.50;99.90;;;;;;4897828;29;20107;-88
2022/05/29 13:56:49;;;;;;;7.35;1.60;;;12.40;99.90;;;;;;4897683;29;20040;-88
2022/05/29 14:05:10;;;;;;;4.13;1.50;;;12.00;99.90;;;;;;4897715;29;20035;-89
2022/05/29 14:07:36;;;;;;;2.78;1.48;;;11.70;99.90;;;;;;4897541;29;20371;-87
2022/05/29 14:10:25;;;;;;;8.85;1.80;;;11.60;99.90;;;;;;4896524;29;20440;-87
2022/05/29 14:13:05;;;;;;;3.15;1.42;;;11.50;99.90;;;;;;4897328;29;20029;-87
2022/05/29 14:15:33;;;;;;;5.82;1.65;;;11.40;99.90;;;;;;4897164;29;20056;-87
2022/05/29 14:18:07;;;;;;;4.43;1.52;;;11.40;99.90;;;;;;4897590;29;20059;-87
2022/05/29 14:20:53;;;;;;;3.83;1.30;;;11.40;99.90;;;;;;4911897;29;20048;-87
2022/05/29 14:23:31;;;;;;;2.38;1.50;;;11.30;99.90;;;;;;4897303;29;20029;-86
2022/05/29 14:26:15;;;;;;;2.67;1.45;;;11.30;99.90;;;;;;4897189;29;20039;-87
2022/05/29 14:29:03;;;;;;;4.13;1.95;;;11.30;99.90;;;;;;4897344;29;20469;-86
2022/05/29 14:31:43;;;;;;;7.03;1.70;;;11.30;99.90;;;;;;4911690;29;20119;-86
2022/05/29 14:34:48;;;;;;;5.95;1.85;;;11.30;99.90;;;;;;4897190;29;20028;-88
2022/05/29 14:37:57;;;;;;;4.20;1.50;;;11.20;99.90;;;;;;4911836;29;20032;-88
2022/05/29 14:40:25;;;;;;;2.55;1.50;;;11.20;99.90;;;;;;4911703;29;20028;-88
2022/05/29 14:42:54;;;;;;;6.15;1.23;;;11.20;99.90;;;;;;4897190;29;20528;-89
2022/05/29 14:45:29;;;;;;;4.18;1.35;;;11.20;99.90;;;;;;4897087;29;20698;-90
2022/05/29 14:48:24;;;;;;;3.95;1.85;;;11.20;99.90;;;;;;4896150;29;20063;-89
2022/05/29 14:51:08;;;;;;;1.42;1.33;;;11.20;99.90;;;;;;4895750;29;20071;-90
2022/05/29 14:53:50;;;;;;;3.03;1.70;;;11.20;99.90;;;;;;4896927;29;20029;-89
2022/05/29 14:56:51;;;;;;;3.63;1.48;;;11.30;99.90;;;;;;4896930;29;20098;-88
2022/05/29 14:59:28;;;;;;;2.55;1.92;;;11.30;99.90;;;;;;4910879;29;20145;-90
2022/05/29 15:01:56;;;;;;;5.15;1.98;;;11.20;99.90;;;;;;4895736;29;20032;-90
2022/05/29 15:04:29;;;;;;;6.80;1.60;;;11.20;99.90;;;;;;4895491;29;20031;-89
2022/05/29 15:12:39;;;;;;;2.63;1.30;;;11.20;99.90;;;;;;4896607;29;20036;-89
2022/05/29 15:15:37;;;;;;;1.95;1.00;;;11.30;99.90;;;;;;4897851;29;20451;-89
2022/05/29 15:18:30;;;;;;;2.33;1.45;;;11.20;99.90;;;;;;4881304;29;20044;-89
2022/05/29 15:24:12;;;;;;;2.80;1.17;;;11.20;99.90;;;;;;4900920;29;20043;-89
2022/05/29 15:27:13;;;;;;;3.63;0.80;;;11.20;99.90;;;;;;4897963;29;20024;-89
2022/05/29 15:29:49;;;;;;;3.05;1.33;;;11.20;99.90;;;;;;4917331;29;20032;-89
2022/05/29 15:32:27;;;;;;;;;;;11.20;99.90;;;;;;4906798;29;20034;-90
2022/05/29 15:35:11;;;;;;;2.08;1.08;;;11.20;99.90;;;;;;4921285;29;20009;-89
2022/05/29 15:37:57;;;;;;;1.73;0.70;;;11.30;99.90;;;;;;4900419;29;20035;-89
2022/05/29 15:40:57;;;;;;;2.60;1.10;;;11.30;99.90;;;;;;4901454;29;20089;-89
2022/05/29 15:43:31;;;;;;;2.90;1.08;;;11.30;99.90;;;;;;4917193;29;20389;-89
2022/05/29 15:46:25;;;;;;;3.43;1.20;;;11.30;99.90;;;;;;4900405;29;20028;-89
2022/05/29 15:49:25;;;;;;;3.95;1.35;;;11.40;99.90;;;;;;4916912;29;20048;-89
2022/05/29 15:52:29;;;;;;;1.10;1.02;;;11.40;99.90;;;;;;4932779;29;20058;-89
2022/05/29 15:55:19;;;;;;;1.48;1.38;;;11.50;99.90;;;;;;4917857;29;20429;-89
2022/05/29 15:57:47;;;;;;;1.48;1.05;;;11.50;99.90;;;;;;4901564;29;20043;-89
2022/05/29 16:00:25;;;;;;;4.75;1.05;;;11.50;99.90;;;;;;4910364;29;20115;-88
2022/05/29 16:02:58;;;;;;;3.30;1.05;;;11.40;99.90;;;;;;4934957;29;20495;-89
2022/05/29 16:05:36;;;;;;;4.32;1.38;;;11.40;99.90;;;;;;4917027;29;20027;-89
2022/05/29 16:08:43;;;;;;;1.52;1.20;;;11.50;99.90;;;;;;4926002;29;20020;-89
2022/05/29 16:11:29;;;;;;;5.60;1.60;;;11.50;99.90;;;;;;4910306;29;20031;-89
2022/05/29 16:13:55;;;;;;;1.85;1.23;;;11.50;99.90;;;;;;4928910;29;20040;-89
2022/05/29 16:16:22;;;;;;;2.63;1.33;;;11.40;99.90;;;;;;4912233;29;20123;-88
2022/05/29 16:19:18;;;;;;;2.42;1.33;;;11.50;99.90;;;;;;4929234;29;20035;-89
2022/05/29 16:22:20;;;;;;;4.25;1.75;;;11.50;99.90;;;;;;4915622;29;20096;-88
2022/05/29 16:25:08;;;;;;;2.97;1.40;;;11.40;99.90;;;;;;4919723;29;20052;-89
2022/05/29 16:28:24;;;;;;;2.22;1.25;;;11.40;99.90;;;;;;4924206;29;20032;-89
2022/05/29 16:31:10;;;;;;;3.72;1.50;;;11.50;99.90;;;;;;4881998;29;20051;-89
2022/05/29 16:33:48;;;;;;;4.07;1.58;;;11.40;99.90;;;;;;4922103;29;20051;-89
2022/05/29 16:36:23;;;;;;;3.58;1.48;;;11.40;99.90;;;;;;4924969;29;20029;-89
2022/05/29 16:48:14;;;;;;;4.05;0.98;;;11.30;99.90;;;;;;4912183;29;20393;-88
2022/05/29 16:51:03;;;;;;;3.17;1.15;;;11.30;99.90;;;;;;4914947;29;20036;-89
2022/05/29 16:53:50;;;;;;;2.42;0.90;;;11.30;99.90;;;;;;4928194;29;20389;-88
2022/05/29 16:56:18;;;;;;;0.70;0.70;;;11.40;99.90;;;;;;4916692;29;20138;-89
2022/05/29 16:58:57;;;;;;;1.67;1.00;;;11.30;99.90;;;;;;4924645;29;20086;-88
2022/05/29 17:01:50;;;;;;;4.07;1.13;;;11.30;99.90;;;;;;4936844;29;20024;-87
2022/05/29 17:04:40;;;;;;;3.13;0.80;;;11.30;99.90;;;;;;4915267;29;20487;-88
2022/05/29 17:07:18;;;;;;;1.08;0.88;;;11.40;99.90;;;;;;4916768;29;20476;-88
2022/05/29 17:09:52;;;;;;;0.90;0.90;;;11.40;99.90;;;;;;4918191;29;20020;-88
2022/05/29 17:12:25;;;;;;;0.95;0.88;;;11.40;99.90;;;;;;4918278;29;20039;-88
2022/05/29 17:14:58;;;;;;;1.33;0.82;;;11.50;99.90;;;;;;4912226;29;20040;-88